PGT48GV LTFJ-LTAI
Flight info
| Callsign | PGT48GV |
|---|---|
| Flight time | 1h 0m |
| Altitude | 37000 |
| Route | ROXUK UN617 ERVAG UT305 TEKDO UT35 BABSA |
| Aircraft | A20N/M-SDE2E3FGHIRWXY/LB1 |
Departure
| Time | 2026-05-04 07:54 |
|---|---|
| Airport | Istanbul Sabiha Gökçen International Airport (LTFJ) |
Arrival
| Time | 2026-05-04 08:54 |
|---|---|
| Airport | Antalya International Airport (LTAI) |
| Time | Latitude | Longitude | Altitude | Speed | Heading |
|---|---|---|---|---|---|
| 2026-05-04 07:27 | 40.90522 | 29.31880 | 321 ft | 0 kts | 154° |
| 2026-05-04 07:42 | 40.90532 | 29.31873 | 321 ft | 2 kts | 150° |
| 2026-05-04 07:43 | 40.90546 | 29.31864 | 321 ft | 2 kts | 155° |
| 2026-05-04 07:43 | 40.90559 | 29.31856 | 321 ft | 2 kts | 154° |
| 2026-05-04 07:43 | 40.90573 | 29.31847 | 321 ft | 1 kts | 154° |
| 2026-05-04 07:43 | 40.90581 | 29.31842 | 321 ft | 1 kts | 139° |
| 2026-05-04 07:44 | 40.90588 | 29.31824 | 321 ft | 2 kts | 92° |
| 2026-05-04 07:44 | 40.90587 | 29.31813 | 321 ft | 0 kts | 66° |
| 2026-05-04 07:44 | 40.90584 | 29.31804 | 321 ft | 0 kts | 63° |
| 2026-05-04 07:46 | 40.90586 | 29.31810 | 321 ft | 2 kts | 63° |
| 2026-05-04 07:47 | 40.90597 | 29.31840 | 321 ft | 5 kts | 63° |
| 2026-05-04 07:47 | 40.90607 | 29.31897 | 321 ft | 7 kts | 97° |
| 2026-05-04 07:47 | 40.90565 | 29.31951 | 321 ft | 9 kts | 155° |
| 2026-05-04 07:49 | 40.90225 | 29.31356 | 320 ft | 17 kts | 244° |
| 2026-05-04 07:49 | 40.90170 | 29.31205 | 320 ft | 18 kts | 245° |
| 2026-05-04 07:49 | 40.90111 | 29.31047 | 320 ft | 20 kts | 245° |
| 2026-05-04 07:50 | 40.90048 | 29.30874 | 320 ft | 21 kts | 244° |
| 2026-05-04 07:50 | 40.89981 | 29.30691 | 321 ft | 22 kts | 246° |
| 2026-05-04 07:50 | 40.89910 | 29.30501 | 321 ft | 23 kts | 243° |
| 2026-05-04 07:50 | 40.89836 | 29.30299 | 320 ft | 25 kts | 244° |
| 2026-05-04 07:51 | 40.89763 | 29.30101 | 315 ft | 19 kts | 243° |
| 2026-05-04 07:51 | 40.89711 | 29.29957 | 315 ft | 10 kts | 243° |
| 2026-05-04 07:51 | 40.89679 | 29.29872 | 317 ft | 9 kts | 248° |
| 2026-05-04 07:51 | 40.89651 | 29.29797 | 317 ft | 10 kts | 244° |
| 2026-05-04 07:52 | 40.89613 | 29.29692 | 315 ft | 14 kts | 244° |
| 2026-05-04 07:52 | 40.89564 | 29.29560 | 312 ft | 17 kts | 244° |
| 2026-05-04 07:52 | 40.89507 | 29.29404 | 308 ft | 20 kts | 244° |
| 2026-05-04 07:52 | 40.89465 | 29.29293 | 305 ft | 9 kts | 234° |
| 2026-05-04 07:53 | 40.89408 | 29.29256 | 304 ft | 8 kts | 175° |
| 2026-05-04 07:54 | 40.90649 | 29.33003 | 1313 ft | 160 kts | 57° |
| 2026-05-04 07:55 | 40.91099 | 29.34277 | 2085 ft | 154 kts | 54° |
| 2026-05-04 07:55 | 40.91563 | 29.35544 | 2688 ft | 157 kts | 54° |
| 2026-05-04 07:55 | 40.92066 | 29.36884 | 3145 ft | 171 kts | 55° |
| 2026-05-04 07:55 | 40.92618 | 29.38355 | 3594 ft | 188 kts | 56° |
| 2026-05-04 07:56 | 40.93142 | 29.40048 | 3953 ft | 218 kts | 73° |
| 2026-05-04 07:56 | 40.92969 | 29.42168 | 4409 ft | 255 kts | 109° |
| 2026-05-04 07:56 | 40.91745 | 29.44015 | 4939 ft | 286 kts | 146° |
| 2026-05-04 07:56 | 40.89849 | 29.44919 | 5717 ft | 297 kts | 167° |
| 2026-05-04 07:57 | 40.87806 | 29.45361 | 6621 ft | 301 kts | 171° |
| 2026-05-04 07:57 | 40.85734 | 29.45748 | 7505 ft | 305 kts | 169° |
| 2026-05-04 07:57 | 40.83634 | 29.46188 | 8360 ft | 310 kts | 168° |
| 2026-05-04 07:57 | 40.81509 | 29.46689 | 9185 ft | 315 kts | 167° |
| 2026-05-04 07:58 | 40.79347 | 29.47239 | 9985 ft | 320 kts | 166° |
| 2026-05-04 07:58 | 40.77134 | 29.47828 | 10675 ft | 330 kts | 165° |
| 2026-05-04 07:58 | 40.74828 | 29.48458 | 11128 ft | 348 kts | 165° |
| 2026-05-04 07:58 | 40.72401 | 29.49128 | 11537 ft | 366 kts | 166° |
| 2026-05-04 07:59 | 40.69863 | 29.49828 | 12057 ft | 378 kts | 166° |
| 2026-05-04 07:59 | 40.67274 | 29.50542 | 12802 ft | 384 kts | 166° |
| 2026-05-04 07:59 | 40.64655 | 29.51257 | 13561 ft | 388 kts | 166° |
| 2026-05-04 07:59 | 40.62012 | 29.51980 | 14291 ft | 392 kts | 165° |
| 2026-05-04 08:00 | 40.59339 | 29.52713 | 15019 ft | 396 kts | 165° |
| 2026-05-04 08:00 | 40.56639 | 29.53455 | 15733 ft | 399 kts | 164° |
| 2026-05-04 08:00 | 40.53906 | 29.54207 | 16423 ft | 402 kts | 165° |
| 2026-05-04 08:02 | 40.34294 | 29.59581 | 20967 ft | 422 kts | 165° |
| 2026-05-04 08:02 | 40.31417 | 29.60367 | 21564 ft | 424 kts | 165° |
| 2026-05-04 08:02 | 40.28527 | 29.61156 | 22160 ft | 427 kts | 165° |
| 2026-05-04 08:03 | 40.25615 | 29.61946 | 22744 ft | 429 kts | 165° |
| 2026-05-04 08:03 | 40.22687 | 29.62742 | 23294 ft | 432 kts | 165° |
| 2026-05-04 08:03 | 40.19749 | 29.63542 | 23859 ft | 434 kts | 165° |
| 2026-05-04 08:03 | 40.16793 | 29.64342 | 24410 ft | 436 kts | 165° |
| 2026-05-04 08:04 | 40.13819 | 29.65145 | 24903 ft | 439 kts | 165° |
| 2026-05-04 08:04 | 40.10821 | 29.65957 | 25370 ft | 443 kts | 165° |
| 2026-05-04 08:04 | 40.07799 | 29.66777 | 25837 ft | 446 kts | 165° |
| 2026-05-04 08:04 | 40.04755 | 29.67603 | 26267 ft | 450 kts | 165° |
| 2026-05-04 08:05 | 40.01688 | 29.68435 | 26713 ft | 452 kts | 164° |
| 2026-05-04 08:05 | 39.98603 | 29.69269 | 27153 ft | 455 kts | 164° |
| 2026-05-04 08:05 | 39.95501 | 29.70105 | 27588 ft | 457 kts | 164° |
| 2026-05-04 08:05 | 39.92371 | 29.70983 | 27995 ft | 459 kts | 162° |
| 2026-05-04 08:06 | 39.89290 | 29.72066 | 28352 ft | 460 kts | 158° |
| 2026-05-04 08:06 | 39.86270 | 29.73409 | 28733 ft | 460 kts | 153° |
| 2026-05-04 08:06 | 39.83315 | 29.74999 | 29114 ft | 459 kts | 150° |
| 2026-05-04 08:06 | 39.80379 | 29.76663 | 29436 ft | 462 kts | 150° |
| 2026-05-04 08:08 | 39.59893 | 29.88250 | 32363 ft | 457 kts | 152° |
| 2026-05-04 08:08 | 39.56985 | 29.89882 | 32723 ft | 455 kts | 152° |
| 2026-05-04 08:10 | 39.33876 | 30.02904 | 34622 ft | 455 kts | 154° |
| 2026-05-04 08:11 | 39.30958 | 30.04546 | 34851 ft | 455 kts | 154° |
| 2026-05-04 08:11 | 39.25164 | 30.07806 | 35316 ft | 455 kts | 155° |
| 2026-05-04 08:11 | 39.22260 | 30.09439 | 35501 ft | 455 kts | 155° |
| 2026-05-04 08:12 | 39.19355 | 30.11071 | 35660 ft | 457 kts | 155° |
| 2026-05-04 08:12 | 39.16436 | 30.12707 | 35827 ft | 458 kts | 155° |
| 2026-05-04 08:12 | 39.13499 | 30.14284 | 35984 ft | 459 kts | 158° |
| 2026-05-04 08:12 | 39.10451 | 30.15619 | 36125 ft | 461 kts | 163° |
| 2026-05-04 08:13 | 39.07351 | 30.16656 | 36279 ft | 462 kts | 167° |
| 2026-05-04 08:13 | 39.04195 | 30.17392 | 36438 ft | 462 kts | 172° |
| 2026-05-04 08:13 | 39.00993 | 30.17827 | 36558 ft | 463 kts | 176° |
| 2026-05-04 08:13 | 38.97772 | 30.17953 | 36678 ft | 464 kts | 181° |
| 2026-05-04 08:14 | 38.94525 | 30.17852 | 36792 ft | 466 kts | 182° |
| 2026-05-04 08:14 | 38.91292 | 30.17721 | 36915 ft | 466 kts | 182° |
| 2026-05-04 08:16 | 38.65619 | 30.16769 | 35287 ft | 457 kts | 182° |
| 2026-05-04 08:16 | 38.62439 | 30.16656 | 34833 ft | 458 kts | 182° |
| 2026-05-04 08:16 | 38.59260 | 30.16543 | 34290 ft | 460 kts | 182° |
| 2026-05-04 08:17 | 38.56046 | 30.16428 | 33679 ft | 463 kts | 182° |
| 2026-05-04 08:17 | 38.52822 | 30.16311 | 33064 ft | 466 kts | 181° |
| 2026-05-04 08:17 | 38.49571 | 30.16189 | 32440 ft | 471 kts | 181° |
| 2026-05-04 08:17 | 38.46289 | 30.16069 | 31775 ft | 477 kts | 180° |
| 2026-05-04 08:19 | 38.23567 | 30.20317 | 27161 ft | 463 kts | 156° |
| 2026-05-04 08:19 | 38.20565 | 30.21732 | 26647 ft | 459 kts | 156° |
| 2026-05-04 08:20 | 38.17582 | 30.23122 | 26130 ft | 456 kts | 157° |
| 2026-05-04 08:20 | 38.14619 | 30.24492 | 25697 ft | 450 kts | 157° |
| 2026-05-04 08:20 | 38.11717 | 30.25824 | 25468 ft | 439 kts | 158° |
| 2026-05-04 08:20 | 38.08865 | 30.27130 | 25235 ft | 428 kts | 158° |
| 2026-05-04 08:21 | 38.06098 | 30.28396 | 25076 ft | 416 kts | 158° |
| 2026-05-04 08:21 | 38.03402 | 30.29620 | 24871 ft | 407 kts | 159° |
| 2026-05-04 08:21 | 38.00731 | 30.30639 | 24762 ft | 396 kts | 163° |
| 2026-05-04 08:21 | 37.98038 | 30.31407 | 24784 ft | 397 kts | 167° |
| 2026-05-04 08:22 | 37.95319 | 30.32103 | 24806 ft | 399 kts | 167° |
| 2026-05-04 08:22 | 37.92597 | 30.32790 | 24744 ft | 401 kts | 167° |
| 2026-05-04 08:24 | 37.73762 | 30.37573 | 21811 ft | 384 kts | 168° |
| 2026-05-04 08:24 | 37.71144 | 30.38239 | 21431 ft | 381 kts | 168° |
| 2026-05-04 08:24 | 37.68555 | 30.38898 | 21043 ft | 378 kts | 168° |
| 2026-05-04 08:24 | 37.65986 | 30.39550 | 20655 ft | 375 kts | 168° |
| 2026-05-04 08:25 | 37.63441 | 30.40196 | 20274 ft | 373 kts | 168° |
| 2026-05-04 08:25 | 37.60909 | 30.40837 | 19904 ft | 370 kts | 168° |
| 2026-05-04 08:25 | 37.58391 | 30.41476 | 19515 ft | 367 kts | 168° |
| 2026-05-04 08:25 | 37.55895 | 30.42109 | 19148 ft | 364 kts | 168° |
| 2026-05-04 08:26 | 37.53424 | 30.42736 | 18779 ft | 362 kts | 168° |
| 2026-05-04 08:27 | 37.36551 | 30.46997 | 16223 ft | 345 kts | 168° |
| 2026-05-04 08:28 | 37.34205 | 30.47589 | 15885 ft | 342 kts | 168° |
| 2026-05-04 08:28 | 37.31877 | 30.48174 | 15529 ft | 340 kts | 168° |
| 2026-05-04 08:28 | 37.29564 | 30.48758 | 15176 ft | 338 kts | 168° |
| 2026-05-04 08:28 | 37.27269 | 30.49335 | 14813 ft | 336 kts | 168° |
| 2026-05-04 08:29 | 37.24985 | 30.49909 | 14472 ft | 334 kts | 168° |
| 2026-05-04 08:29 | 37.22714 | 30.50478 | 14131 ft | 332 kts | 168° |
| 2026-05-04 08:29 | 37.20459 | 30.51045 | 13769 ft | 330 kts | 168° |
| 2026-05-04 08:31 | 37.05053 | 30.54899 | 11368 ft | 315 kts | 167° |
| 2026-05-04 08:33 | 36.90369 | 30.58562 | 9028 ft | 302 kts | 167° |
| 2026-05-04 08:33 | 36.88282 | 30.59085 | 8414 ft | 310 kts | 167° |
| 2026-05-04 08:35 | 36.74302 | 30.62919 | 4031 ft | 275 kts | 142° |
| 2026-05-04 08:35 | 36.73148 | 30.64717 | 3432 ft | 264 kts | 104° |
| 2026-05-04 08:35 | 36.73026 | 30.66866 | 3242 ft | 240 kts | 77° |
| 2026-05-04 08:35 | 36.73337 | 30.68863 | 3111 ft | 226 kts | 74° |
| 2026-05-04 08:37 | 36.74589 | 30.78307 | 2479 ft | 152 kts | 46° |
| 2026-05-04 08:37 | 36.75405 | 30.79008 | 2493 ft | 139 kts | 9° |
| 2026-05-04 08:37 | 36.76353 | 30.79166 | 2504 ft | 137 kts | 1° |
| 2026-05-04 08:38 | 36.76987 | 30.79236 | 2502 ft | 136 kts | 0° |
| 2026-05-04 08:38 | 36.78227 | 30.79379 | 2493 ft | 129 kts | 0° |
| 2026-05-04 08:38 | 36.79108 | 30.79494 | 2485 ft | 126 kts | 1° |
| 2026-05-04 08:40 | 36.85123 | 30.80358 | 977 ft | 122 kts | 3° |
| 2026-05-04 08:40 | 36.85687 | 30.80447 | 836 ft | 123 kts | 358° |
| 2026-05-04 08:40 | 36.86818 | 30.80583 | 538 ft | 122 kts | 1° |
| 2026-05-04 08:41 | 36.87670 | 30.80682 | 363 ft | 120 kts | 360° |
| 2026-05-04 08:41 | 36.88484 | 30.80779 | 191 ft | 114 kts | 0° |
| 2026-05-04 08:41 | 36.89018 | 30.80859 | 234 ft | 121 kts | 359° |
| 2026-05-04 08:41 | 36.90113 | 30.81154 | 1006 ft | 131 kts | 5° |
| 2026-05-04 08:42 | 36.91003 | 30.81503 | 1717 ft | 139 kts | 11° |
| 2026-05-04 08:42 | 36.91878 | 30.81956 | 2504 ft | 137 kts | 17° |
| 2026-05-04 08:42 | 36.92700 | 30.82490 | 3205 ft | 135 kts | 23° |
| 2026-05-04 08:42 | 36.93483 | 30.83114 | 3838 ft | 136 kts | 30° |
| 2026-05-04 08:43 | 36.94226 | 30.83831 | 4462 ft | 137 kts | 34° |
| 2026-05-04 08:43 | 36.94924 | 30.84631 | 5080 ft | 139 kts | 40° |
| 2026-05-04 08:43 | 36.95569 | 30.85512 | 5696 ft | 140 kts | 45° |
| 2026-05-04 08:43 | 36.96149 | 30.86479 | 6270 ft | 146 kts | 54° |
| 2026-05-04 08:44 | 36.96666 | 30.87730 | 6435 ft | 184 kts | 69° |
| 2026-05-04 08:44 | 36.96648 | 30.89500 | 6479 ft | 224 kts | 103° |
| 2026-05-04 08:46 | 36.85793 | 30.91254 | 4410 ft | 241 kts | 187° |
| 2026-05-04 08:46 | 36.84104 | 30.91072 | 4052 ft | 243 kts | 187° |
| 2026-05-04 08:46 | 36.82407 | 30.90903 | 3684 ft | 246 kts | 187° |
| 2026-05-04 08:46 | 36.80694 | 30.90740 | 3317 ft | 248 kts | 187° |
| 2026-05-04 08:47 | 36.78969 | 30.90583 | 2948 ft | 249 kts | 187° |
| 2026-05-04 08:47 | 36.77243 | 30.90439 | 2698 ft | 245 kts | 187° |
| 2026-05-04 08:47 | 36.75569 | 30.90283 | 2537 ft | 236 kts | 194° |
| 2026-05-04 08:47 | 36.74181 | 30.89440 | 2467 ft | 218 kts | 236° |
| 2026-05-04 08:48 | 36.73626 | 30.87783 | 2487 ft | 206 kts | 271° |
| 2026-05-04 08:48 | 36.73762 | 30.86031 | 2499 ft | 203 kts | 283° |
| 2026-05-04 08:48 | 36.74058 | 30.84324 | 2508 ft | 197 kts | 294° |
| 2026-05-04 08:48 | 36.74678 | 30.82797 | 2535 ft | 193 kts | 301° |
| 2026-05-04 08:49 | 36.75319 | 30.81412 | 2518 ft | 175 kts | 302° |
| 2026-05-04 08:50 | 36.80112 | 30.79634 | 2228 ft | 135 kts | 2° |
| 2026-05-04 08:50 | 36.81042 | 30.79771 | 1900 ft | 134 kts | 0° |
| 2026-05-04 08:51 | 36.81968 | 30.79897 | 1567 ft | 132 kts | 359° |
| 2026-05-04 08:51 | 36.82885 | 30.80019 | 1351 ft | 132 kts | 1° |
| 2026-05-04 08:51 | 36.83794 | 30.80143 | 1127 ft | 131 kts | 0° |
| 2026-05-04 08:51 | 36.84713 | 30.80268 | 910 ft | 134 kts | 358° |
| 2026-05-04 08:52 | 36.85641 | 30.80382 | 733 ft | 133 kts | 359° |
| 2026-05-04 08:52 | 36.86550 | 30.80521 | 549 ft | 132 kts | 359° |
| 2026-05-04 08:52 | 36.87471 | 30.80657 | 361 ft | 130 kts | 1° |
| 2026-05-04 08:52 | 36.88364 | 30.80772 | 200 ft | 127 kts | 360° |
| 2026-05-04 08:53 | 36.89198 | 30.80870 | 172 ft | 101 kts | 6° |
| 2026-05-04 08:54 | 36.90113 | 30.80825 | 175 ft | 8 kts | 338° |
| 2026-05-04 08:55 | 36.90167 | 30.80798 | 176 ft | 8 kts | 338° |
| 2026-05-04 08:55 | 36.90222 | 30.80781 | 176 ft | 8 kts | 359° |
| 2026-05-04 08:55 | 36.90272 | 30.80785 | 177 ft | 6 kts | 6° |
| 2026-05-04 08:55 | 36.90311 | 30.80769 | 177 ft | 6 kts | 304° |
| 2026-05-04 08:57 | 36.90373 | 30.80096 | 178 ft | 13 kts | 277° |
| 2026-05-04 09:01 | 36.90993 | 30.79937 | 174 ft | 11 kts | 4° |
| 2026-05-04 09:01 | 36.91069 | 30.79949 | 173 ft | 11 kts | 5° |
| 2026-05-04 09:01 | 36.91125 | 30.79963 | 173 ft | 6 kts | 38° |
| 2026-05-04 09:01 | 36.91140 | 30.80013 | 174 ft | 6 kts | 92° |
| 2026-05-04 09:02 | 36.91137 | 30.80056 | 174 ft | 4 kts | 97° |
| 2026-05-04 09:02 | 36.91137 | 30.80057 | 174 ft | 0 kts | 97° |